Wetterdaten: Woche 27.03.17 - 02.04.17 (KW13)
Datum Zeit Temp. I. Temp. A. Feuchte I. Feuchte A. Luftdruck Regen Wind Richtung Sonnenschein UV Solar Taupunkt Windchill Windben
27.03.2017 00:00 23,9 C 1,3 C 43 % 74 % 1027,1 hPa 0,0 l/m 1,3 km/h (1 Bft) O-NO 0,00 h 0,0 UV-I 0 W/m -2,8 C 1,3 C 2,5 km/h (1 Bft)
27.03.2017 01:00 23,6 C 0,5 C 44 % 77 % 1027,2 hPa 0,0 l/m 0,3 km/h (0 Bft) N-NO 0,00 h 0,0 UV-I 0 W/m -3,1 C 0,5 C 1,0 km/h (0 Bft)
27.03.2017 02:00 23,4 C -0,5 C 44 % 82 % 1027,0 hPa 0,0 l/m 0,4 km/h (0 Bft) NW 0,00 h 0,0 UV-I 0 W/m -3,2 C -0,5 C 0,9 km/h (0 Bft)
27.03.2017 03:00 23,3 C -1,1 C 45 % 85 % 1026,9 hPa 0,0 l/m 0,2 km/h (0 Bft) N 0,00 h 0,0 UV-I 0 W/m -3,3 C -1,1 C 0,3 km/h (0 Bft)
27.03.2017 04:00 23,3 C -1,7 C 45 % 87 % 1026,8 hPa 0,0 l/m 0,3 km/h (0 Bft) NO 0,00 h 0,0 UV-I 0 W/m -3,7 C -1,7 C 0,7 km/h (0 Bft)
27.03.2017 05:00 23,2 C -2,2 C 45 % 88 % 1026,8 hPa 0,0 l/m 0,0 km/h (0 Bft) SW 0,00 h 0,0 UV-I 0 W/m -3,9 C -2,2 C 0,1 km/h (0 Bft)
27.03.2017 06:00 23,1 C -2,6 C 46 % 89 % 1026,9 hPa 0,0 l/m 0,0 km/h (0 Bft) N 0,00 h 0,0 UV-I 0 W/m -4,2 C -2,6 C 0,0 km/h (0 Bft)
27.03.2017 07:00 23,2 C -2,8 C 47 % 90 % 1027,1 hPa 0,0 l/m 0,5 km/h (0 Bft) NO 0,00 h 0,0 UV-I 19 W/m -4,3 C -2,8 C 0,9 km/h (0 Bft)
27.03.2017 08:00 23,4 C 0,0 C 46 % 90 % 1027,4 hPa 0,0 l/m 0,0 km/h (0 Bft) N 0,68 h 0,6 UV-I 203 W/m -1,4 C 0,0 C 0,0 km/h (0 Bft)
27.03.2017 09:00 23,6 C 6,1 C 44 % 64 % 1027,2 hPa 0,0 l/m 0,0 km/h (0 Bft) N 1,00 h 1,3 UV-I 406 W/m -0,3 C 6,1 C 0,0 km/h (0 Bft)
27.03.2017 10:00 23,9 C 9,2 C 42 % 48 % 1027,3 hPa 0,0 l/m 0,2 km/h (0 Bft) O 1,00 h 2,2 UV-I 543 W/m -1,4 C 9,1 C 0,5 km/h (0 Bft)
27.03.2017 11:00 23,9 C 10,6 C 39 % 42 % 1027,1 hPa 0,0 l/m 3,5 km/h (1 Bft) O-SO 1,00 h 3,1 UV-I 647 W/m -1,9 C 10,2 C 7,4 km/h (2 Bft)
27.03.2017 12:00 24,1 C 12,8 C 40 % 39 % 1026,7 hPa 0,0 l/m 1,5 km/h (1 Bft) O-NO 1,00 h 3,8 UV-I 704 W/m -0,7 C 12,8 C 4,2 km/h (1 Bft)
27.03.2017 13:00 24,3 C 13,9 C 44 % 35 % 1026,1 hPa 0,0 l/m 0,7 km/h (0 Bft) O-SO 1,00 h 4,0 UV-I 714 W/m -1,3 C 13,9 C 1,6 km/h (1 Bft)
27.03.2017 14:00 24,3 C 15,2 C 39 % 30 % 1025,5 hPa 0,0 l/m 1,6 km/h (1 Bft) N 1,00 h 3,6 UV-I 675 W/m -2,3 C 15,2 C 2,5 km/h (1 Bft)
27.03.2017 15:00 24,4 C 16,2 C 37 % 27 % 1024,9 hPa 0,0 l/m 2,1 km/h (1 Bft) N 1,00 h 2,8 UV-I 587 W/m -2,9 C 15,9 C 1,4 km/h (1 Bft)
27.03.2017 16:00 24,0 C 15,9 C 31 % 26 % 1024,3 hPa 0,0 l/m 3,1 km/h (1 Bft) SO 1,00 h 1,8 UV-I 460 W/m -3,6 C 15,7 C 7,4 km/h (2 Bft)
27.03.2017 17:00 23,4 C 15,6 C 28 % 29 % 1023,9 hPa 0,0 l/m 1,0 km/h (0 Bft) SO 1,00 h 1,0 UV-I 298 W/m -2,4 C 15,6 C 3,0 km/h (1 Bft)
27.03.2017 18:00 23,3 C 14,9 C 31 % 33 % 1023,8 hPa 0,0 l/m 0,5 km/h (0 Bft) N 0,22 h 0,5 UV-I 97 W/m -1,2 C 14,9 C 0,8 km/h (0 Bft)
27.03.2017 19:00 23,9 C 13,2 C 34 % 39 % 1023,8 hPa 0,0 l/m 0,0 km/h (0 Bft) N 0,00 h 0,0 UV-I 9 W/m -0,5 C 13,2 C 0,0 km/h (0 Bft)
27.03.2017 20:00 24,3 C 10,9 C 36 % 51 % 1024,1 hPa 0,0 l/m 0,0 km/h (0 Bft) N 0,00 h 0,0 UV-I 0 W/m 1,0 C 10,9 C 0,0 km/h (0 Bft)
27.03.2017 21:00 24,2 C 7,9 C 38 % 63 % 1024,2 hPa 0,0 l/m 0,0 km/h (0 Bft) N 0,00 h 0,0 UV-I 0 W/m 1,3 C 7,9 C 0,0 km/h (0 Bft)
27.03.2017 22:00 24,2 C 5,9 C 39 % 71 % 1024,4 hPa 0,0 l/m 0,0 km/h (0 Bft) N 0,00 h 0,0 UV-I 0 W/m 1,0 C 5,9 C 0,0 km/h (0 Bft)
27.03.2017 23:00 24,1 C 4,4 C 39 % 75 % 1024,4 hPa 0,0 l/m 0,0 km/h (0 Bft) N 0,00 h 0,0 UV-I 0 W/m 0,5 C 4,4 C 0,0 km/h (0 Bft)
28.03.2017 00:00 23,7 C 3,1 C 40 % 80 % 1024,3 hPa 0,0 l/m 0,0 km/h (0 Bft) N 0,00 h 0,0 UV-I 0 W/m 0,0 C 3,1 C 0,0 km/h (0 Bft)
28.03.2017 01:00 23,5 C 2,2 C 41 % 83 % 1024,3 hPa 0,0 l/m 0,0 km/h (0 Bft) N 0,00 h 0,0 UV-I 0 W/m -0,4 C 2,2 C 0,0 km/h (0 Bft)
28.03.2017 02:00 23,3 C 1,5 C 41 % 86 % 1024,2 hPa 0,0 l/m 0,0 km/h (0 Bft) N 0,00 h 0,0 UV-I 0 W/m -0,7 C 1,5 C 0,0 km/h (0 Bft)
28.03.2017 03:00 23,2 C 0,8 C 42 % 87 % 1023,8 hPa 0,0 l/m 0,0 km/h (0 Bft) N 0,00 h 0,0 UV-I 0 W/m -1,2 C 0,8 C 0,0 km/h (0 Bft)
28.03.2017 04:00 23,2 C 0,1 C 42 % 89 % 1023,5 hPa 0,0 l/m 0,0 km/h (0 Bft) N 0,00 h 0,0 UV-I 0 W/m -1,5 C 0,1 C 0,0 km/h (0 Bft)
28.03.2017 05:00 23,1 C -0,3 C 42 % 89 % 1023,5 hPa 0,0 l/m 0,0 km/h (0 Bft) N 0,00 h 0,0 UV-I 0 W/m -1,9 C -0,3 C 0,0 km/h (0 Bft)
28.03.2017 06:00 23,1 C -0,8 C 43 % 90 % 1023,6 hPa 0,0 l/m 0,0 km/h (0 Bft) N 0,00 h 0,0 UV-I 0 W/m -2,3 C -0,8 C 0,0 km/h (0 Bft)
28.03.2017 07:00 23,2 C -1,0 C 44 % 91 % 1023,9 hPa 0,0 l/m 0,0 km/h (0 Bft) N 0,00 h 0,0 UV-I 19 W/m -2,3 C -1,0 C 0,0 km/h (0 Bft)
28.03.2017 08:00 23,3 C 1,3 C 43 % 91 % 1024,0 hPa 0,0 l/m 0,0 km/h (0 Bft) N 0,73 h 0,6 UV-I 206 W/m -0,1 C 1,3 C 0,0 km/h (0 Bft)
28.03.2017 09:00 23,7 C 6,7 C 43 % 74 % 1024,1 hPa 0,0 l/m 0,0 km/h (0 Bft) N 1,00 h 1,3 UV-I 407 W/m 2,3 C 6,7 C 0,0 km/h (0 Bft)
28.03.2017 10:00 23,9 C 11,4 C 40 % 56 % 1024,1 hPa 0,0 l/m 0,0 km/h (0 Bft) N 1,00 h 2,2 UV-I 552 W/m 2,9 C 11,4 C 0,0 km/h (0 Bft)
28.03.2017 11:00 23,4 C 14,6 C 35 % 42 % 1024,0 hPa 0,0 l/m 0,2 km/h (0 Bft) N 1,00 h 3,1 UV-I 655 W/m 2,0 C 14,6 C 0,3 km/h (0 Bft)
28.03.2017 12:00 23,7 C 16,9 C 36 % 36 % 1023,5 hPa 0,0 l/m 1,6 km/h (1 Bft) N 1,00 h 3,8 UV-I 713 W/m 1,8 C 16,9 C 0,0 km/h (0 Bft)
28.03.2017 13:00 23,8 C 18,0 C 35 % 33 % 1023,1 hPa 0,0 l/m 2,2 km/h (1 Bft) N 1,00 h 4,0 UV-I 721 W/m 1,2 C 17,9 C 1,9 km/h (1 Bft)
28.03.2017 14:00 22,6 C 18,4 C 33 % 33 % 1022,6 hPa 0,0 l/m 3,8 km/h (1 Bft) S 1,00 h 3,6 UV-I 678 W/m 1,9 C 18,3 C 7,7 km/h (2 Bft)
28.03.2017 15:00 22,4 C 18,8 C 32 % 32 % 1022,1 hPa 0,0 l/m 3,8 km/h (1 Bft) W-SW 1,00 h 2,7 UV-I 586 W/m 1,8 C 18,7 C 6,1 km/h (2 Bft)
28.03.2017 16:00 21,9 C 18,7 C 31 % 32 % 1021,7 hPa 0,0 l/m 4,1 km/h (1 Bft) S-SW 1,00 h 1,8 UV-I 458 W/m 1,5 C 18,6 C 7,6 km/h (2 Bft)
28.03.2017 17:00 22,3 C 18,4 C 31 % 32 % 1021,4 hPa 0,0 l/m 2,8 km/h (1 Bft) W-SW 1,00 h 0,9 UV-I 293 W/m 1,5 C 18,3 C 4,8 km/h (1 Bft)
28.03.2017 18:00 22,4 C 17,9 C 32 % 34 % 1021,4 hPa 0,0 l/m 2,0 km/h (1 Bft) W-SW 0,22 h 0,5 UV-I 96 W/m 1,7 C 17,9 C 4,9 km/h (1 Bft)
28.03.2017 19:00 22,9 C 16,0 C 35 % 36 % 1021,8 hPa 0,0 l/m 0,5 km/h (0 Bft) W-SW 0,00 h 0,0 UV-I 10 W/m 1,1 C 16,0 C 1,3 km/h (1 Bft)
28.03.2017 20:00 23,3 C 13,7 C 37 % 44 % 1022,3 hPa 0,0 l/m 0,0 km/h (0 Bft) N 0,00 h 0,0 UV-I 0 W/m 1,7 C 13,7 C 0,0 km/h (0 Bft)
28.03.2017 21:00 23,4 C 10,6 C 39 % 60 % 1022,8 hPa 0,0 l/m 0,0 km/h (0 Bft) N 0,00 h 0,0 UV-I 0 W/m 3,2 C 10,6 C 0,0 km/h (0 Bft)
28.03.2017 22:00 23,5 C 8,2 C 39 % 71 % 1023,0 hPa 0,0 l/m 0,0 km/h (0 Bft) N 0,00 h 0,0 UV-I 0 W/m 3,2 C 8,2 C 0,0 km/h (0 Bft)
28.03.2017 23:00 23,4 C 6,5 C 40 % 76 % 1023,3 hPa 0,0 l/m 0,0 km/h (0 Bft) N 0,00 h 0,0 UV-I 0 W/m 2,6 C 6,5 C 0,0 km/h (0 Bft)
29.03.2017 00:00 23,1 C 5,5 C 40 % 80 % 1023,6 hPa 0,0 l/m 0,0 km/h (0 Bft) N 0,00 h 0,0 UV-I 0 W/m 2,3 C 5,5 C 0,0 km/h (0 Bft)
29.03.2017 01:00 22,9 C 4,7 C 40 % 81 % 1023,7 hPa 0,0 l/m 0,0 km/h (0 Bft) N 0,00 h 0,0 UV-I 0 W/m 1,7 C 4,7 C 0,0 km/h (0 Bft)
29.03.2017 02:00 22,9 C 3,9 C 41 % 84 % 1023,7 hPa 0,0 l/m 0,0 km/h (0 Bft) N 0,00 h 0,0 UV-I 0 W/m 1,5 C 3,9 C 0,0 km/h (0 Bft)
29.03.2017 03:00 22,8 C 3,3 C 41 % 87 % 1023,6 hPa 0,0 l/m 0,0 km/h (0 Bft) N 0,00 h 0,0 UV-I 0 W/m 1,3 C 3,3 C 0,0 km/h (0 Bft)
29.03.2017 04:00 22,8 C 2,9 C 41 % 88 % 1023,7 hPa 0,0 l/m 0,0 km/h (0 Bft) N 0,00 h 0,0 UV-I 0 W/m 1,1 C 2,9 C 0,0 km/h (0 Bft)
29.03.2017 05:00 22,8 C 2,6 C 42 % 89 % 1023,9 hPa 0,0 l/m 0,0 km/h (0 Bft) N 0,00 h 0,0 UV-I 0 W/m 0,9 C 2,6 C 0,0 km/h (0 Bft)
29.03.2017 06:00 22,8 C 2,6 C 42 % 90 % 1024,2 hPa 0,0 l/m 0,0 km/h (0 Bft) N 0,00 h 0,0 UV-I 0 W/m 1,2 C 2,6 C 0,0 km/h (0 Bft)
29.03.2017 07:00 22,8 C 2,9 C 42 % 91 % 1024,6 hPa 0,0 l/m 0,0 km/h (0 Bft) N 0,00 h 0,0 UV-I 26 W/m 1,6 C 2,9 C 0,0 km/h (0 Bft)
29.03.2017 08:00 23,0 C 5,7 C 44 % 89 % 1024,9 hPa 0,0 l/m 0,0 km/h (0 Bft) N 0,60 h 0,6 UV-I 175 W/m 4,0 C 5,7 C 0,0 km/h (0 Bft)
29.03.2017 09:00 23,1 C 10,8 C 44 % 75 % 1024,9 hPa 0,0 l/m 1,4 km/h (1 Bft) W-SW 1,00 h 1,2 UV-I 362 W/m 6,6 C 10,7 C 2,1 km/h (1 Bft)
29.03.2017 10:00 23,4 C 13,1 C 43 % 68 % 1024,9 hPa 0,0 l/m 7,1 km/h (2 Bft) N 1,00 h 2,0 UV-I 512 W/m 7,3 C 12,2 C 2,3 km/h (1 Bft)
29.03.2017 11:00 23,3 C 14,3 C 43 % 64 % 1025,2 hPa 0,0 l/m 9,1 km/h (2 Bft) W-SW 1,00 h 2,7 UV-I 559 W/m 7,6 C 12,8 C 16,0 km/h (3 Bft)
29.03.2017 12:00 23,6 C 14,9 C 42 % 58 % 1025,0 hPa 0,0 l/m 10,4 km/h (2 Bft) W-SW 0,83 h 2,8 UV-I 466 W/m 6,8 C 13,0 C 17,5 km/h (3 Bft)
29.03.2017 13:00 23,7 C 16,0 C 41 % 51 % 1024,6 hPa 0,0 l/m 9,9 km/h (2 Bft) W-SW 1,00 h 2,7 UV-I 513 W/m 5,9 C 14,3 C 17,4 km/h (3 Bft)
29.03.2017 14:00 23,6 C 16,2 C 40 % 49 % 1024,2 hPa 0,0 l/m 12,1 km/h (2 Bft) W 0,78 h 2,4 UV-I 365 W/m 5,5 C 13,7 C 17,7 km/h (3 Bft)
29.03.2017 15:00 23,5 C 16,1 C 41 % 49 % 1023,8 hPa 0,0 l/m 11,8 km/h (2 Bft) W-SW 0,92 h 2,1 UV-I 420 W/m 5,4 C 13,7 C 19,8 km/h (3 Bft)
29.03.2017 16:00 23,6 C 16,7 C 42 % 48 % 1023,4 hPa 0,0 l/m 8,2 km/h (2 Bft) W-SW 1,00 h 1,8 UV-I 536 W/m 5,6 C 15,6 C 17,0 km/h (3 Bft)
29.03.2017 17:00 23,7 C 16,4 C 43 % 48 % 1023,0 hPa 0,0 l/m 6,7 km/h (2 Bft) W-SW 0,58 h 0,8 UV-I 236 W/m 5,4 C 15,5 C 10,4 km/h (2 Bft)
29.03.2017 18:00 23,9 C 15,7 C 45 % 50 % 1023,2 hPa 0,0 l/m 4,2 km/h (1 Bft) W-SW 0,10 h 0,5 UV-I 91 W/m 5,5 C 15,3 C 7,4 km/h (2 Bft)
29.03.2017 19:00 23,9 C 14,4 C 45 % 54 % 1023,6 hPa 0,0 l/m 0,9 km/h (0 Bft) W-SW 0,00 h 0,0 UV-I 16 W/m 5,3 C 14,4 C 2,7 km/h (1 Bft)
29.03.2017 20:00 24,1 C 13,3 C 45 % 59 % 1024,4 hPa 0,0 l/m 0,2 km/h (0 Bft) SW 0,00 h 0,0 UV-I 0 W/m 5,4 C 13,3 C 0,8 km/h (0 Bft)
29.03.2017 21:00 24,4 C 13,2 C 45 % 60 % 1024,9 hPa 0,0 l/m 1,4 km/h (1 Bft) W 0,00 h 0,0 UV-I 0 W/m 5,6 C 13,2 C 3,6 km/h (1 Bft)
29.03.2017 22:00 24,5 C 13,0 C 45 % 62 % 1025,3 hPa 0,0 l/m 1,4 km/h (1 Bft) W 0,00 h 0,0 UV-I 0 W/m 5,8 C 13,0 C 3,4 km/h (1 Bft)
29.03.2017 23:00 24,5 C 12,7 C 46 % 63 % 1025,6 hPa 0,0 l/m 1,0 km/h (0 Bft) W-NW 0,00 h 0,0 UV-I 0 W/m 5,8 C 12,7 C 2,6 km/h (1 Bft)
30.03.2017 00:00 24,2 C 12,4 C 46 % 65 % 1025,9 hPa 0,0 l/m 0,4 km/h (0 Bft) NW 0,00 h 0,0 UV-I 0 W/m 5,9 C 12,4 C 1,2 km/h (1 Bft)
30.03.2017 01:00 23,9 C 12,0 C 46 % 67 % 1026,1 hPa 0,0 l/m 0,6 km/h (0 Bft) N 0,00 h 0,0 UV-I 0 W/m 6,1 C 12,0 C 1,6 km/h (1 Bft)
30.03.2017 02:00 23,7 C 11,7 C 46 % 69 % 1026,2 hPa 0,0 l/m 0,0 km/h (0 Bft) N 0,00 h 0,0 UV-I 0 W/m 6,3 C 11,7 C 0,0 km/h (0 Bft)
30.03.2017 03:00 23,6 C 11,2 C 47 % 71 % 1025,9 hPa 0,0 l/m 0,0 km/h (0 Bft) N 0,00 h 0,0 UV-I 0 W/m 6,2 C 11,2 C 0,0 km/h (0 Bft)
30.03.2017 04:00 23,5 C 10,5 C 47 % 75 % 1025,9 hPa 0,0 l/m 0,0 km/h (0 Bft) N 0,00 h 0,0 UV-I 0 W/m 6,3 C 10,5 C 0,0 km/h (0 Bft)
30.03.2017 05:00 23,4 C 9,3 C 47 % 79 % 1026,1 hPa 0,0 l/m 0,0 km/h (0 Bft) N 0,00 h 0,0 UV-I 0 W/m 5,9 C 9,3 C 0,0 km/h (0 Bft)
30.03.2017 06:00 23,3 C 8,0 C 47 % 84 % 1026,4 hPa 0,0 l/m 0,0 km/h (0 Bft) N 0,00 h 0,0 UV-I 6 W/m 5,5 C 8,0 C 0,0 km/h (0 Bft)
30.03.2017 07:00 23,5 C 7,7 C 49 % 86 % 1026,5 hPa 0,0 l/m 0,0 km/h (0 Bft) N 0,00 h 0,0 UV-I 35 W/m 5,5 C 7,7 C 0,0 km/h (0 Bft)
30.03.2017 08:00 23,5 C 8,8 C 48 % 85 % 1026,8 hPa 0,0 l/m 0,0 km/h (0 Bft) N 0,05 h 0,6 UV-I 112 W/m 6,4 C 8,8 C 0,0 km/h (0 Bft)
30.03.2017 09:00 23,5 C 11,1 C 48 % 78 % 1027,0 hPa 0,0 l/m 0,0 km/h (0 Bft) N 0,85 h 1,2 UV-I 276 W/m 7,4 C 11,1 C 0,0 km/h (0 Bft)
30.03.2017 10:00 23,6 C 13,8 C 46 % 69 % 1027,0 hPa 0,0 l/m 0,8 km/h (0 Bft) S 1,00 h 1,9 UV-I 399 W/m 8,2 C 13,8 C 1,5 km/h (1 Bft)
30.03.2017 11:00 23,2 C 14,7 C 44 % 62 % 1026,9 hPa 0,0 l/m 1,9 km/h (1 Bft) SW 1,00 h 2,6 UV-I 411 W/m 7,5 C 14,7 C 4,5 km/h (1 Bft)
30.03.2017 12:00 23,6 C 15,8 C 42 % 58 % 1026,5 hPa 0,0 l/m 2,8 km/h (1 Bft) N 1,00 h 3,2 UV-I 490 W/m 7,7 C 15,6 C 2,9 km/h (1 Bft)
30.03.2017 13:00 24,1 C 16,8 C 41 % 56 % 1026,1 hPa 0,0 l/m 0,3 km/h (0 Bft) N 1,00 h 3,3 UV-I 528 W/m 7,8 C 16,8 C 0,1 km/h (0 Bft)
30.03.2017 14:00 24,0 C 17,6 C 41 % 52 % 1025,6 hPa 0,0 l/m 0,0 km/h (0 Bft) N 1,00 h 3,0 UV-I 636 W/m 7,7 C 17,6 C 0,0 km/h (0 Bft)
30.03.2017 15:00 23,8 C 17,0 C 41 % 54 % 1025,1 hPa 0,0 l/m 0,0 km/h (0 Bft) N 1,00 h 1,8 UV-I 255 W/m 7,7 C 17,0 C 0,0 km/h (0 Bft)
30.03.2017 16:00 23,4 C 18,0 C 41 % 52 % 1024,8 hPa 0,0 l/m 1,5 km/h (1 Bft) S 1,00 h 1,3 UV-I 385 W/m 8,1 C 18,0 C 3,3 km/h (1 Bft)
30.03.2017 17:00 23,7 C 17,3 C 42 % 53 % 1024,4 hPa 0,0 l/m 0,1 km/h (0 Bft) SO 0,85 h 0,8 UV-I 216 W/m 7,7 C 17,3 C 0,5 km/h (0 Bft)
30.03.2017 18:00 24,0 C 16,5 C 43 % 56 % 1024,1 hPa 0,0 l/m 0,0 km/h (0 Bft) N 0,00 h 0,5 UV-I 51 W/m 7,7 C 16,5 C 0,0 km/h (0 Bft)
30.03.2017 19:00 24,2 C 15,0 C 43 % 64 % 1024,2 hPa 0,0 l/m 0,0 km/h (0 Bft) N 0,00 h 0,0 UV-I 12 W/m 8,2 C 15,0 C 0,0 km/h (0 Bft)
30.03.2017 20:00 24,3 C 12,4 C 44 % 76 % 1024,4 hPa 0,0 l/m 0,0 km/h (0 Bft) N 0,00 h 0,0 UV-I 0 W/m 8,3 C 12,4 C 0,0 km/h (0 Bft)
30.03.2017 21:00 24,3 C 10,3 C 45 % 83 % 1024,6 hPa 0,0 l/m 0,0 km/h (0 Bft) N 0,00 h 0,0 UV-I 0 W/m 7,5 C 10,3 C 0,0 km/h (0 Bft)
30.03.2017 22:00 24,3 C 9,2 C 45 % 85 % 1024,3 hPa 0,0 l/m 0,0 km/h (0 Bft) N 0,00 h 0,0 UV-I 0 W/m 6,9 C 9,2 C 0,0 km/h (0 Bft)
30.03.2017 23:00 24,3 C 8,3 C 45 % 86 % 1024,1 hPa 0,0 l/m 0,0 km/h (0 Bft) N 0,00 h 0,0 UV-I 0 W/m 6,0 C 8,3 C 0,0 km/h (0 Bft)
31.03.2017 00:00 24,0 C 7,3 C 45 % 88 % 1024,1 hPa 0,0 l/m 0,0 km/h (0 Bft) N 0,00 h 0,0 UV-I 0 W/m 5,4 C 7,3 C 0,0 km/h (0 Bft)
31.03.2017 01:00 23,8 C 6,5 C 46 % 89 % 1023,6 hPa 0,0 l/m 0,0 km/h (0 Bft) N 0,00 h 0,0 UV-I 0 W/m 4,7 C 6,5 C 0,0 km/h (0 Bft)
31.03.2017 02:00 23,6 C 5,7 C 46 % 90 % 1023,3 hPa 0,0 l/m 0,0 km/h (0 Bft) N 0,00 h 0,0 UV-I 0 W/m 4,1 C 5,7 C 0,0 km/h (0 Bft)
31.03.2017 03:00 23,6 C 5,0 C 46 % 90 % 1022,7 hPa 0,0 l/m 0,0 km/h (0 Bft) N 0,00 h 0,0 UV-I 0 W/m 3,6 C 5,0 C 0,0 km/h (0 Bft)
31.03.2017 04:00 23,5 C 4,6 C 46 % 91 % 1022,3 hPa 0,0 l/m 0,0 km/h (0 Bft) N 0,00 h 0,0 UV-I 0 W/m 3,3 C 4,6 C 0,0 km/h (0 Bft)
31.03.2017 05:00 23,4 C 4,1 C 46 % 91 % 1021,8 hPa 0,0 l/m 0,0 km/h (0 Bft) N 0,00 h 0,0 UV-I 0 W/m 2,8 C 4,1 C 0,0 km/h (0 Bft)
31.03.2017 06:00 23,4 C 3,5 C 47 % 92 % 1021,4 hPa 0,0 l/m 0,0 km/h (0 Bft) N 0,00 h 0,0 UV-I 0 W/m 2,2 C 3,5 C 0,0 km/h (0 Bft)
31.03.2017 07:00 23,5 C 3,0 C 47 % 92 % 1021,5 hPa 0,0 l/m 0,0 km/h (0 Bft) N 0,00 h 0,0 UV-I 22 W/m 1,9 C 3,0 C 0,0 km/h (0 Bft)
31.03.2017 08:00 23,6 C 5,4 C 48 % 92 % 1021,2 hPa 0,0 l/m 0,0 km/h (0 Bft) N 0,83 h 0,6 UV-I 208 W/m 4,2 C 5,4 C 0,0 km/h (0 Bft)
31.03.2017 09:00 23,7 C 10,8 C 48 % 80 % 1020,8 hPa 0,0 l/m 0,2 km/h (0 Bft) W 1,00 h 1,3 UV-I 404 W/m 7,4 C 10,8 C 0,5 km/h (0 Bft)
31.03.2017 10:00 23,8 C 14,9 C 46 % 68 % 1020,5 hPa 0,0 l/m 2,7 km/h (1 Bft) W 1,00 h 2,3 UV-I 552 W/m 8,9 C 14,8 C 5,2 km/h (1 Bft)
31.03.2017 11:00 24,0 C 17,7 C 46 % 58 % 1019,9 hPa 0,0 l/m 4,9 km/h (1 Bft) S 1,00 h 3,3 UV-I 643 W/m 9,2 C 17,5 C 8,8 km/h (2 Bft)
31.03.2017 12:00 23,6 C 19,0 C 44 % 50 % 1019,4 hPa 0,0 l/m 7,2 km/h (2 Bft) S 1,00 h 3,9 UV-I 687 W/m 8,3 C 18,4 C 12,8 km/h (3 Bft)
31.03.2017 13:00 23,5 C 20,4 C 43 % 46 % 1018,7 hPa 0,0 l/m 4,3 km/h (1 Bft) S 1,00 h 4,2 UV-I 712 W/m 8,2 C 20,2 C 8,9 km/h (2 Bft)
31.03.2017 14:00 23,8 C 21,1 C 40 % 40 % 1018,0 hPa 0,0 l/m 3,9 km/h (1 Bft) S 1,00 h 3,8 UV-I 682 W/m 7,1 C 20,9 C 7,8 km/h (2 Bft)
31.03.2017 15:00 23,8 C 21,9 C 37 % 35 % 1017,1 hPa 0,0 l/m 1,0 km/h (0 Bft) SW 1,00 h 2,9 UV-I 596 W/m 5,7 C 21,9 C 3,4 km/h (1 Bft)
31.03.2017 16:00 23,9 C 22,1 C 34 % 31 % 1016,3 hPa 0,0 l/m 1,6 km/h (1 Bft) S 1,00 h 1,9 UV-I 459 W/m 4,0 C 22,1 C 4,4 km/h (1 Bft)
31.03.2017 17:00 23,9 C 21,9 C 35 % 32 % 1015,6 hPa 0,0 l/m 2,4 km/h (1 Bft) S 1,00 h 1,0 UV-I 305 W/m 4,6 C 21,8 C 5,0 km/h (1 Bft)
31.03.2017 18:00 23,8 C 21,0 C 36 % 33 % 1015,3 hPa 0,0 l/m 1,3 km/h (1 Bft) S 0,25 h 0,5 UV-I 96 W/m 4,2 C 21,0 C 3,7 km/h (1 Bft)
31.03.2017 19:00 23,9 C 18,5 C 40 % 41 % 1015,2 hPa 0,0 l/m 0,0 km/h (0 Bft) N 0,00 h 0,0 UV-I 11 W/m 5,0 C 18,5 C 0,0 km/h (0 Bft)
31.03.2017 20:00 24,2 C 15,2 C 43 % 58 % 1015,1 hPa 0,0 l/m 0,1 km/h (0 Bft) O-NO 0,00 h 0,0 UV-I 0 W/m 7,0 C 15,2 C 0,3 km/h (0 Bft)
31.03.2017 21:00 24,4 C 13,0 C 45 % 68 % 1015,0 hPa 0,0 l/m 0,0 km/h (0 Bft) N 0,00 h 0,0 UV-I 0 W/m 7,2 C 13,0 C 0,0 km/h (0 Bft)
31.03.2017 22:00 24,5 C 11,0 C 45 % 74 % 1014,8 hPa 0,0 l/m 0,0 km/h (0 Bft) N 0,00 h 0,0 UV-I 0 W/m 6,5 C 11,0 C 0,0 km/h (0 Bft)
31.03.2017 23:00 24,4 C 9,5 C 46 % 78 % 1014,5 hPa 0,0 l/m 0,0 km/h (0 Bft) N 0,00 h 0,0 UV-I 0 W/m 5,8 C 9,5 C 0,0 km/h (0 Bft)
01.04.2017 00:00 24,2 C 8,2 C 45 % 82 % 1014,3 hPa 0,0 l/m 0,0 km/h (0 Bft) N 0,00 h 0,0 UV-I 0 W/m 5,4 C 8,2 C 0,0 km/h (0 Bft)
01.04.2017 01:00 24,0 C 7,3 C 45 % 85 % 1014,0 hPa 0,0 l/m 0,0 km/h (0 Bft) N 0,00 h 0,0 UV-I 0 W/m 4,9 C 7,3 C 0,0 km/h (0 Bft)
01.04.2017 02:00 23,8 C 6,5 C 46 % 88 % 1013,6 hPa 0,0 l/m 0,0 km/h (0 Bft) N 0,00 h 0,0 UV-I 0 W/m 4,6 C 6,5 C 0,0 km/h (0 Bft)
01.04.2017 03:00 23,7 C 6,2 C 46 % 90 % 1013,4 hPa 0,0 l/m 0,0 km/h (0 Bft) N 0,00 h 0,0 UV-I 0 W/m 4,6 C 6,2 C 0,0 km/h (0 Bft)
01.04.2017 04:00 23,7 C 5,3 C 46 % 90 % 1013,2 hPa 0,0 l/m 0,0 km/h (0 Bft) N 0,00 h 0,0 UV-I 0 W/m 3,7 C 5,3 C 0,0 km/h (0 Bft)
01.04.2017 05:00 23,6 C 4,5 C 46 % 90 % 1012,8 hPa 0,0 l/m 0,0 km/h (0 Bft) N 0,00 h 0,0 UV-I 0 W/m 3,0 C 4,5 C 0,0 km/h (0 Bft)
01.04.2017 06:00 23,6 C 4,0 C 47 % 91 % 1012,5 hPa 0,0 l/m 0,0 km/h (0 Bft) NW 0,00 h 0,0 UV-I 7 W/m 2,7 C 4,0 C 0,2 km/h (0 Bft)
01.04.2017 07:00 23,5 C 3,9 C 47 % 92 % 1012,5 hPa 0,0 l/m 0,0 km/h (0 Bft) N 0,00 h 0,0 UV-I 28 W/m 2,7 C 3,9 C 0,0 km/h (0 Bft)
01.04.2017 08:00 23,4 C 6,9 C 47 % 90 % 1012,2 hPa 0,0 l/m 0,0 km/h (0 Bft) N 0,85 h 0,6 UV-I 223 W/m 5,4 C 6,9 C 0,1 km/h (0 Bft)
01.04.2017 09:00 23,7 C 13,2 C 49 % 75 % 1011,8 hPa 0,0 l/m 0,5 km/h (0 Bft) O-SO 1,00 h 1,4 UV-I 418 W/m 8,8 C 13,2 C 1,3 km/h (1 Bft)
01.04.2017 10:00 23,8 C 16,8 C 48 % 63 % 1011,5 hPa 0,0 l/m 4,6 km/h (1 Bft) O-NO 1,00 h 2,3 UV-I 550 W/m 9,7 C 16,6 C 9,4 km/h (2 Bft)
01.04.2017 11:00 23,9 C 19,2 C 47 % 55 % 1010,9 hPa 0,0 l/m 6,0 km/h (2 Bft) O-NO 1,00 h 3,3 UV-I 652 W/m 10,0 C 18,7 C 12,0 km/h (2 Bft)
01.04.2017 12:00 23,7 C 20,0 C 44 % 53 % 1010,5 hPa 0,0 l/m 5,4 km/h (1 Bft) O 1,00 h 3,9 UV-I 703 W/m 10,0 C 19,5 C 11,1 km/h (2 Bft)
01.04.2017 13:00 23,5 C 20,5 C 42 % 49 % 1009,9 hPa 0,0 l/m 7,8 km/h (2 Bft) SO 1,00 h 4,0 UV-I 707 W/m 9,3 C 19,6 C 13,6 km/h (3 Bft)
01.04.2017 14:00 24,0 C 21,1 C 43 % 47 % 1009,3 hPa 0,0 l/m 7,3 km/h (2 Bft) SO 1,00 h 3,5 UV-I 653 W/m 9,3 C 20,4 C 13,3 km/h (3 Bft)
01.04.2017 15:00 24,1 C 20,9 C 42 % 47 % 1008,7 hPa 0,0 l/m 4,5 km/h (1 Bft) SO 1,00 h 2,4 UV-I 420 W/m 9,2 C 20,6 C 10,0 km/h (2 Bft)
01.04.2017 16:00 24,2 C 20,7 C 42 % 48 % 1008,3 hPa 0,0 l/m 3,8 km/h (1 Bft) O-SO 0,57 h 1,3 UV-I 237 W/m 9,2 C 20,5 C 8,0 km/h (2 Bft)
01.04.2017 17:00 24,0 C 19,1 C 43 % 55 % 1008,0 hPa 0,0 l/m 0,9 km/h (0 Bft) O-SO 0,00 h 0,6 UV-I 65 W/m 9,8 C 19,1 C 2,8 km/h (1 Bft)
01.04.2017 18:00 24,1 C 18,7 C 45 % 58 % 1008,1 hPa 0,0 l/m 0,9 km/h (0 Bft) SO 0,00 h 0,0 UV-I 58 W/m 10,2 C 18,7 C 3,1 km/h (1 Bft)
01.04.2017 19:00 24,3 C 17,8 C 45 % 62 % 1008,3 hPa 0,0 l/m 0,0 km/h (0 Bft) N 0,00 h 0,0 UV-I 18 W/m 10,4 C 17,8 C 0,0 km/h (0 Bft)
01.04.2017 20:00 24,3 C 15,7 C 45 % 71 % 1008,8 hPa 0,0 l/m 0,0 km/h (0 Bft) N 0,00 h 0,0 UV-I 0 W/m 10,4 C 15,7 C 0,0 km/h (0 Bft)
01.04.2017 21:00 24,4 C 14,2 C 46 % 77 % 1009,4 hPa 0,0 l/m 1,1 km/h (0 Bft) N-NW 0,00 h 0,0 UV-I 0 W/m 10,1 C 14,2 C 1,9 km/h (1 Bft)
01.04.2017 22:00 24,5 C 12,8 C 46 % 80 % 1009,7 hPa 0,0 l/m 0,8 km/h (0 Bft) N-NW 0,00 h 0,0 UV-I 0 W/m 9,5 C 12,8 C 1,8 km/h (1 Bft)
01.04.2017 23:00 24,4 C 11,6 C 47 % 83 % 1010,1 hPa 0,0 l/m 0,0 km/h (0 Bft) N 0,00 h 0,0 UV-I 0 W/m 8,8 C 11,6 C 0,0 km/h (0 Bft)
02.04.2017 00:00 24,3 C 10,1 C 47 % 85 % 1010,4 hPa 0,0 l/m 0,0 km/h (0 Bft) N 0,00 h 0,0 UV-I 0 W/m 7,7 C 10,1 C 0,0 km/h (0 Bft)
02.04.2017 01:00 24,0 C 8,7 C 47 % 88 % 1010,7 hPa 0,0 l/m 0,0 km/h (0 Bft) N 0,00 h 0,0 UV-I 0 W/m 6,9 C 8,7 C 0,0 km/h (0 Bft)
02.04.2017 02:00 23,9 C 8,1 C 47 % 92 % 1011,1 hPa 0,0 l/m 0,0 km/h (0 Bft) N 0,00 h 0,0 UV-I 0 W/m 6,8 C 8,1 C 0,1 km/h (0 Bft)
02.04.2017 03:00 23,8 C 7,6 C 47 % 91 % 1011,5 hPa 0,0 l/m 0,0 km/h (0 Bft) N 0,00 h 0,0 UV-I 0 W/m 6,2 C 7,6 C 0,0 km/h (0 Bft)
02.04.2017 04:00 23,7 C 7,6 C 48 % 93 % 1012,1 hPa 0,0 l/m 0,8 km/h (0 Bft) O-NO 0,00 h 0,0 UV-I 0 W/m 6,5 C 7,6 C 2,0 km/h (1 Bft)
02.04.2017 05:00 23,7 C 7,6 C 48 % 92 % 1012,7 hPa 0,0 l/m 0,0 km/h (0 Bft) N 0,00 h 0,0 UV-I 0 W/m 6,5 C 7,6 C 0,1 km/h (0 Bft)
02.04.2017 06:00 23,6 C 7,8 C 48 % 93 % 1013,4 hPa 0,0 l/m 0,4 km/h (0 Bft) W-NW 0,00 h 0,0 UV-I 6 W/m 6,7 C 7,8 C 1,7 km/h (1 Bft)
02.04.2017 07:00 23,7 C 7,9 C 49 % 93 % 1014,2 hPa 0,0 l/m 0,0 km/h (0 Bft) N-NW 0,00 h 0,0 UV-I 26 W/m 6,8 C 7,9 C 0,3 km/h (0 Bft)
02.04.2017 08:00 23,8 C 9,1 C 49 % 92 % 1014,8 hPa 0,0 l/m 1,3 km/h (1 Bft) NW 0,50 h 0,6 UV-I 150 W/m 7,8 C 9,1 C 2,5 km/h (1 Bft)
02.04.2017 09:00 23,8 C 12,2 C 49 % 83 % 1015,3 hPa 0,0 l/m 3,3 km/h (1 Bft) W-NW 1,00 h 1,2 UV-I 366 W/m 9,4 C 12,2 C 6,9 km/h (2 Bft)
02.04.2017 10:00 24,0 C 15,1 C 49 % 73 % 1015,7 hPa 0,0 l/m 4,8 km/h (1 Bft) N-NW 1,00 h 2,1 UV-I 517 W/m 10,4 C 14,8 C 9,1 km/h (2 Bft)
02.04.2017 11:00 23,7 C 17,4 C 48 % 66 % 1016,2 hPa 0,0 l/m 4,5 km/h (1 Bft) N 1,00 h 3,0 UV-I 636 W/m 10,9 C 17,2 C 8,3 km/h (2 Bft)
02.04.2017 12:00 23,8 C 19,0 C 48 % 56 % 1016,4 hPa 0,0 l/m 5,7 km/h (1 Bft) N 1,00 h 3,6 UV-I 713 W/m 10,0 C 18,7 C 10,9 km/h (2 Bft)
02.04.2017 13:00 23,8 C 20,3 C 47 % 50 % 1016,2 hPa 0,0 l/m 5,3 km/h (1 Bft) N 1,00 h 3,7 UV-I 694 W/m 9,5 C 20,1 C 9,6 km/h (2 Bft)
02.04.2017 14:00 23,7 C 20,2 C 45 % 51 % 1016,0 hPa 0,0 l/m 4,9 km/h (1 Bft) N 1,00 h 2,8 UV-I 495 W/m 9,8 C 20,0 C 10,0 km/h (2 Bft)
02.04.2017 15:00 23,9 C 19,9 C 45 % 53 % 1015,9 hPa 0,0 l/m 5,1 km/h (1 Bft) N 1,00 h 1,7 UV-I 231 W/m 10,1 C 19,7 C 9,9 km/h (2 Bft)
02.04.2017 16:00 23,8 C 20,0 C 45 % 52 % 1016,1 hPa 0,0 l/m 4,7 km/h (1 Bft) N 1,00 h 1,4 UV-I 428 W/m 10,0 C 19,7 C 8,9 km/h (2 Bft)
02.04.2017 17:00 24,1 C 18,4 C 47 % 57 % 1016,5 hPa 0,0 l/m 6,6 km/h (2 Bft) N 0,30 h 0,7 UV-I 137 W/m 9,7 C 17,8 C 11,9 km/h (2 Bft)
02.04.2017 18:00 24,2 C 16,7 C 49 % 62 % 1017,1 hPa 0,0 l/m 12,9 km/h (3 Bft) N 0,33 h 0,5 UV-I 125 W/m 9,4 C 14,0 C 21,1 km/h (4 Bft)
02.04.2017 19:00 24,3 C 14,1 C 48 % 71 % 1017,9 hPa 0,0 l/m 10,1 km/h (2 Bft) N-NW 0,00 h 0,0 UV-I 22 W/m 8,9 C 12,0 C 16,7 km/h (3 Bft)
02.04.2017 20:00 24,3 C 12,6 C 49 % 74 % 1018,9 hPa 0,0 l/m 3,2 km/h (1 Bft) N 0,00 h 0,0 UV-I 0 W/m 8,1 C 12,4 C 7,2 km/h (2 Bft)
02.04.2017 21:00 24,4 C 12,0 C 51 % 76 % 1019,7 hPa 0,0 l/m 3,4 km/h (1 Bft) N-NW 0,00 h 0,0 UV-I 0 W/m 7,8 C 11,8 C 7,1 km/h (2 Bft)
02.04.2017 22:00 24,3 C 11,8 C 51 % 78 % 1020,4 hPa 0,0 l/m 1,9 km/h (1 Bft) N 0,00 h 0,0 UV-I 0 W/m 8,0 C 11,8 C 4,5 km/h (1 Bft)
02.04.2017 23:00 23,7 C 11,3 C 51 % 84 % 1021,1 hPa 0,0 l/m 2,2 km/h (1 Bft) N 0,00 h 0,0 UV-I 0 W/m 8,6 C 11,2 C 4,7 km/h (1 Bft)
Min-Datum _ 28.03.17 27.03.17 27.03.17 27.03.17 01.04.17 - 27.03.17 - - - - 27.03.17 27.03.17 27.03.17
_ Min-Zeit 16:40 07:08 17:24 15:48 17:29 - 00:13 - - - - 16:02 07:08 00:13
Minimum _ 21,8 C -2,9 C 27 % 23 % 1007,9 hPa - 0,0 km/h (0 Bft) - - - - -5,2 C -2,9 C 0,0 km/h (0 Bft)
Max-Datum _ 27.03.17 31.03.17 02.04.17 31.03.17 27.03.17 27.03.17 29.03.17 - 02.04.17 30.03.17 30.03.17 02.04.17 31.03.17 29.03.17
_ Max-Zeit 15:00 15:47 22:02 08:13 08:16 00:00 15:28 - 10:11 13:16 13:52 11:43 15:47 14:10
Maximum _ 24,6 C 22,4 C 52 % 95 % 1027,5 hPa 0,0 l/m 24,1 km/h
W-SW (4 Bft)
- 0,07 h 4,2 UV-I 926 W/m 11,6 C 22,4 C 35,4 km/h
W (5 Bft)
Durchschnitt _ 23,7 C 11,2 C 43 % 68 % 1020,6 hPa #0,0 l/m 1,7 km/h (1 Bft) N #65:03 h 2,1 UV-I 356 W/m 4,6 C 11,0 C 3,1 km/h (1 Bft)